Flight Track Log - Related Links

Times and Time Zones

All times are in EDT time to prevent confusion due to time zone crossing. See the RPA3253 flight status page for this flight to view local times or setup timezone preferences in your user account.

Time Position Orientation Groundspeed Altitude Reporting Facility
EDT Latitude Longitude Course Direction KTS MPH feet Rate Location/Type
Fri 11:29:18 PM 35.1758 -81.0022 234° Southwest 182 209 3,000  Level Atlanta Center
Fri 11:30:42 PM 35.1636 -81.1044 262° West 247 284 6,100 2,458 Climbing Atlanta Center
Fri 11:31:00 PM 35.2252 -81.2345 199° South  Level FlightAware Approximate
Fri 11:31:42 PM 35.1556 -81.2011 264° West 278 320 8,900  Level Atlanta Center
Fri 11:32:00 PM 35.1329 -81.2710 192° South  Level FlightAware Approximate
Fri 11:32:42 PM 35.1431 -81.2981 261° West 294 338 11,100  Level Atlanta Center
Fri 11:33:00 PM 35.0680 -81.3371 251° West  Level FlightAware Approximate
Fri 11:33:42 PM 35.0972 -81.3936 240° Southwest 310 357 13,400  Level Atlanta Center
Fri 11:34:42 PM 35.0489 -81.4764 235° Southwest 327 376 15,100 1,900 Climbing Atlanta Center
Fri 11:35:42 PM 34.9944 -81.5744 236° Southwest 348 400 17,200 1,900 Climbing Atlanta Center
Fri 11:36:42 PM 34.9381 -81.6747 236° Southwest 359 413 18,900 1,750 Climbing Atlanta Center
Fri 11:37:42 PM 34.8794 -81.7778 235° Southwest 369 425 20,700 1,650 Climbing Atlanta Center
Fri 11:38:42 PM 34.8208 -81.8806 235° Southwest 369 425 22,200 1,350 Climbing Atlanta Center
Fri 11:39:42 PM 34.7519 -81.9961 234° Southwest 385 443 23,400 1,300 Climbing Atlanta Center
Fri 11:40:42 PM 34.6869 -82.1064 234° Southwest 396 456 24,800 1,300 Climbing Atlanta Center
Fri 11:41:42 PM 34.6197 -82.2189 234° Southwest 401 461 26,000 1,350 Climbing Atlanta Center
Fri 11:42:42 PM 34.5567 -82.3314 236° Southwest 409 471 27,500 1,300 Climbing Atlanta Center
Fri 11:43:42 PM 34.4894 -82.4461 235° Southwest 409 471 28,600 1,200 Climbing Atlanta Center
Fri 11:44:42 PM 34.4239 -82.5581 235° Southwest 409 471 29,900 1,150 Climbing Atlanta Center
Fri 11:45:42 PM 34.3542 -82.6650 232° Southwest 409 471 30,900 1,000 Climbing Atlanta Center
Fri 11:46:42 PM 34.2908 -82.7792 236° Southwest 415 478 31,900 1,000 Climbing Atlanta Center
Fri 11:47:42 PM 34.2250 -82.8881 234° Southwest 410 472 32,900 750 Climbing Atlanta Center
Fri 11:48:42 PM 34.1592 -82.9969 234° Southwest 410 472 33,400 550 Climbing Atlanta Center
Fri 11:49:42 PM 34.0956 -83.1081 235° Southwest 410 472 34,000 300 Climbing Atlanta Center
Fri 11:50:42 PM 34.0253 -83.2217 233° Southwest 416 479 34,000  Level Atlanta Center
Fri 11:51:42 PM 33.9572 -83.3375 235° Southwest 421 484 34,000  Level Atlanta Center
Fri 11:52:42 PM 33.8950 -83.4406 234° Southwest 430 495 34,000  Level Atlanta Center
Fri 11:53:42 PM 33.8267 -83.5536 234° Southwest 430 495 34,000  Level Atlanta Center
Fri 11:54:42 PM 33.7583 -83.6689 235° Southwest 430 495 34,000  Level Atlanta Center
Fri 11:55:42 PM 33.6875 -83.7842 234° Southwest 430 495 34,000  Level Atlanta Center
Fri 11:56:42 PM 33.6167 -83.8992 234° Southwest 430 495 34,000  Level Atlanta Center
Fri 11:57:42 PM 33.5417 -84.0264 235° Southwest 430 495 34,000  Level Atlanta Center
Fri 11:58:42 PM 33.4706 -84.1383 233° Southwest 430 495 34,000  Level Atlanta Center
Fri 11:59:42 PM 33.3994 -84.2553 234° Southwest 430 495 34,000  Level Atlanta Center
Sat 12:00:42 AM 33.3283 -84.3694 233° Southwest 430 495 34,000  Level Atlanta Center
Sat 12:01:42 AM 33.2611 -84.4836 235° Southwest 430 495 34,000 -1,100 Level Atlanta Center
Sat 12:02:42 AM 33.1897 -84.5997 234° Southwest 430 495 31,800 -1,900 Descending Atlanta Center
Sat 12:03:42 AM 33.1139 -84.7208 233° Southwest 440 506 30,200 -900 Descending Atlanta Center
Sat 12:04:42 AM 33.0444 -84.8319 233° Southwest 451 519 30,000 -100 Descending Atlanta Center
Sat 12:05:42 AM 32.9683 -84.9550 234° Southwest 466 536 30,000  Level Atlanta Center
Sat 12:06:42 AM 32.8903 -85.0778 233° Southwest 471 542 30,000  Level Atlanta Center
Sat 12:07:42 AM 32.8078 -85.2078 233° Southwest 471 542 30,000  Level Atlanta Center
Sat 12:08:42 AM 32.7292 -85.3278 232° Southwest 466 536 30,000  Level Atlanta Center
Sat 12:09:42 AM 32.6547 -85.4500 234° Southwest 460 529 30,000  Level Atlanta Center
Sat 12:10:42 AM 32.5719 -85.5694 231° Southwest 465 535 30,000  Level Atlanta Center
Sat 12:11:42 AM 32.4953 -85.6939 234° Southwest 470 541 30,000  Level Atlanta Center
Sat 12:12:42 AM 32.4122 -85.8203 232° Southwest 478 550 30,000  Level Atlanta Center
Sat 12:13:42 AM 32.3353 -85.9392 233° Southwest 478 550 30,000  Level Atlanta Center
Sat 12:14:42 AM 32.2603 -86.0603 234° Southwest 478 550 30,000  Level Atlanta Center
Sat 12:15:42 AM 32.1850 -86.1861 235° Southwest 473 544 30,000  Level Atlanta Center
Sat 12:16:42 AM 32.1058 -86.2972 230° Southwest 478 550 30,000  Level Atlanta Center
Sat 12:17:42 AM 32.0261 -86.4272 234° Southwest 472 543 30,000  Level Atlanta Center
Sat 12:18:42 AM 31.9511 -86.5356 231° Southwest 472 543 30,000  Level Atlanta Center
Sat 12:19:42 AM 31.8711 -86.6581 232° Southwest 478 550 30,000  Level Atlanta Center
Sat 12:20:42 AM 31.7936 -86.7756 232° Southwest 483 556 30,000  Level Atlanta Center
Sat 12:21:42 AM 31.7136 -86.8950 232° Southwest 478 550 30,000  Level Atlanta Center
Sat 12:23:18 AM 31.5850 -87.0883 232° Southwest 462 532 30,000  Level Houston Center
Sat 12:24:19 AM 31.5050 -87.2072 232° Southwest 464 534 30,000  Level Houston Center
Sat 12:25:19 AM 31.4261 -87.3278 233° Southwest 466 536 30,000  Level Houston Center
Sat 12:26:20 AM 31.3483 -87.4475 233° Southwest 464 534 30,000  Level Houston Center
Sat 12:27:20 AM 31.2864 -87.5786 241° Southwest 463 533 30,000  Level Houston Center
Sat 12:28:21 AM 31.2253 -87.7108 242° Southwest 464 534 30,000  Level Houston Center
Sat 12:29:21 AM 31.1656 -87.8400 242° Southwest 463 533 30,000 -150 Level Houston Center
Sat 12:30:21 AM 31.1036 -87.9714 241° Southwest 464 534 29,700 -744 Descending Houston Center
Sat 12:31:22 AM 31.0422 -88.1008 241° Southwest 459 528 28,500 -1,190 Descending Houston Center
Sat 12:32:22 AM 30.9789 -88.2283 240° Southwest 458 527 27,300 -1,140 Descending Houston Center
Sat 12:33:23 AM 30.9214 -88.3542 242° Southwest 443 510 26,200 -1,289 Descending Houston Center
Sat 12:34:23 AM 30.8622 -88.4767 241° Southwest 434 499 24,700 -1,550 Descending Houston Center
Sat 12:35:23 AM 30.7989 -88.6092 241° Southwest 424 488 23,100 -1,488 Descending Houston Center
Sat 12:36:24 AM 30.7442 -88.7222 241° Southwest 404 465 21,700 -1,438 Descending Houston Center
Sat 12:37:24 AM 30.6897 -88.8331 240° Southwest 396 456 20,200 -1,500 Descending Houston Center
Sat 12:38:24 AM 30.6339 -88.9536 242° Southwest 389 448 18,700 -1,339 Descending Houston Center
Sat 12:39:25 AM 30.5822 -89.0603 241° Southwest 380 437 17,500 -1,101 Descending Houston Center
Sat 12:40:13 AM 30.5536 -89.1247 243° Southwest 377 434 16,700 -1,333 Descending Houston Center
Sat 12:41:13 AM 30.4914 -89.2511 240° Southwest 374 430 15,100 -1,438 Descending Houston Center
Sat 12:42:14 AM 30.4431 -89.3525 241° Southwest 370 426 13,800 -1,240 Descending Houston Center
Sat 12:43:14 AM 30.4094 -89.4625 251° West 365 420 12,600 -1,289 Descending Houston Center
Sat 12:44:15 AM 30.3717 -89.5753 249° West 348 400 11,200 -1,230 Descending Houston Center
Sat 12:45:16 AM 30.3397 -89.6731 249° West 326 375 10,100 -992 Descending Houston Center
Sat 12:46:16 AM 30.3111 -89.7586 249° West 270 311 9,200 -1,190 Descending Houston Center
Sat 12:47:17 AM 30.2844 -89.8369 249° West 256 295 7,700 -1,587 Descending Houston Center
Sat 12:48:17 AM 30.2600 -89.9150 250° West 260 299 6,000 -1,636 Descending Houston Center
Sat 12:49:18 AM 30.2333 -89.9933 249° West 263 303 4,400 -984 Descending Houston Center
Sat 12:50:19 AM 30.2067 -90.0761 250° West 257 296 4,000 -298 Descending Houston Center
Sat 12:51:19 AM 30.1819 -90.1519 249° West 256 295 3,800 -793 Descending Houston Center
Sat 12:52:20 AM 30.1422 -90.2183 235° Southwest 249 287 2,400 -885 Descending Houston Center
Sat 12:53:21 AM 30.1064 -90.2775 235° Southwest 228 262 2,000 -198 Descending Houston Center
Sat 12:54:21 AM 30.0664 -90.3344 231° Southwest 214 246 2,000  Level Houston Center
Sat 12:55:22 AM 30.0319 -90.3764 227° Southwest 159 183 2,000 -446 Level Houston Center
Sat 12:56:22 AM 30.0100 -90.3367 123° Southeast 168 193 1,100 -893 Descending Houston Center
Sat 12:57:23 AM 29.9981 -90.2889 106° East 154 177 200 -885 Descending Houston Center

Login

Don't have an account? Register now (free) for customized features, flight alerts, and more!